createdAt,value
2023-02-23T06:19:19.088Z,1004.43
2023-02-23T06:29:19.078Z,1004.53
2023-02-23T06:39:19.084Z,1004.51
2023-02-23T06:49:19.175Z,1004.68
2023-02-23T06:59:19.104Z,1004.73
2023-02-23T07:09:19.142Z,1004.71
2023-02-23T07:19:19.057Z,1004.76
2023-02-23T07:29:18.988Z,1004.86
2023-02-23T07:39:19.245Z,1004.86
2023-02-23T07:49:19.271Z,1004.96
2023-02-23T07:59:19.096Z,1005.05
2023-02-23T08:09:19.185Z,1005.14
2023-02-23T08:19:19.255Z,1005.10
2023-02-23T08:29:19.133Z,1005.24
2023-02-23T08:39:19.271Z,1005.35
2023-02-23T08:49:19.473Z,1005.41
2023-02-23T08:59:19.699Z,1005.45
2023-02-23T09:09:19.572Z,1005.50
2023-02-23T09:19:19.344Z,1005.58
2023-02-23T09:29:19.550Z,1005.71
2023-02-23T09:39:29.118Z,1005.56
2023-02-23T09:49:19.457Z,1005.49
2023-02-23T09:59:19.661Z,1005.59
2023-02-23T10:09:19.587Z,1005.65
2023-02-23T10:19:19.619Z,1005.64
2023-02-23T10:29:19.587Z,1005.68
2023-02-23T10:39:19.609Z,1005.65
2023-02-23T10:49:19.675Z,1005.64
2023-02-23T10:59:19.578Z,1005.55
2023-02-23T11:09:20.528Z,1005.50
2023-02-23T11:19:19.646Z,1005.37
2023-02-23T11:29:19.669Z,1005.42
2023-02-23T11:39:19.592Z,1005.34
2023-02-23T11:49:19.739Z,1005.26
2023-02-23T11:59:19.702Z,1005.16
2023-02-23T12:09:19.638Z,1005.19
2023-02-23T12:19:19.480Z,1005.09
2023-02-23T12:29:19.613Z,1004.99
2023-02-23T12:39:19.629Z,1004.98
2023-02-23T12:49:19.496Z,1005.01
2023-02-23T12:59:19.446Z,1005.01
2023-02-23T13:09:19.488Z,1005.01
2023-02-23T13:19:20.478Z,1005.11
2023-02-23T13:29:19.554Z,1005.09
2023-02-23T13:39:19.713Z,1005.01
2023-02-23T13:49:19.529Z,1004.98
2023-02-23T13:59:19.524Z,1004.94
2023-02-23T14:09:19.524Z,1004.92
2023-02-23T14:19:19.564Z,1004.90
2023-02-23T14:29:20.702Z,1004.86
2023-02-23T14:39:20.641Z,1004.86
2023-02-23T14:49:19.610Z,1004.84
2023-02-23T14:59:19.609Z,1004.82
2023-02-23T15:09:19.629Z,1004.83
2023-02-23T15:19:19.668Z,1004.77
2023-02-23T15:29:19.650Z,1004.68
2023-02-23T15:39:19.688Z,1004.65
2023-02-23T15:49:19.731Z,1004.67
2023-02-23T15:59:19.724Z,1004.55
2023-02-23T16:09:19.797Z,1004.49
2023-02-23T16:19:19.727Z,1004.51
2023-02-23T16:29:19.748Z,1004.58
2023-02-23T16:39:19.931Z,1004.48
2023-02-23T16:49:19.701Z,1004.40
2023-02-23T16:59:19.798Z,1004.40
2023-02-23T17:09:19.787Z,1004.61
2023-02-23T17:29:19.806Z,1004.93
2023-02-23T17:39:19.889Z,1005.00
2023-02-23T17:49:19.949Z,1005.08
2023-02-23T17:59:19.931Z,1005.07
2023-02-23T18:09:19.964Z,1005.00
2023-02-23T18:19:19.970Z,1005.06
2023-02-23T18:29:19.955Z,1005.01
2023-02-23T18:39:19.989Z,1005.01
2023-02-23T18:49:19.968Z,1004.85
2023-02-23T18:59:20.077Z,1004.94
2023-02-23T19:09:20.187Z,1004.90
2023-02-23T19:19:20.344Z,1004.84
